Washington, District of Columbia
Current Conditions -  °F | °C
As of 6:07 PM on Wednesday 26 Nov 2014 (Local Time) from KDCA Reporting Station
Overcast Overcast  
Wind Chill: -1°   Ceiling: 1300
Heat Index:   Visibility: 10mi
Dew Point:   Wind: 9mph
Humidity: 87%   Direction: 340°NNW
Pressure: 29.96"   Gusts: NA
Location:  38.89°N, 77.03°W
Report Text: KDCA 262307Z 34008KT 10SM BKN013 OVC090 03/01 A2996 RMK AO2 RAE01 P0000
Loading
Personal Weather Stations






























Interactive Weather Map New forecast layout! Learn more

10-Day Weather Forecast

Advertisements
Track Severe Weather on mobile